Kalamazoo, Michigan
Current Conditions -  °F | °C
As of 10:53 PM on Tuesday 25 Nov 2014 (Local Time) from KAZO Reporting Station
Overcast Overcast  
Wind Chill: 18°   Ceiling: 2400
Heat Index: 28°   Visibility: 10mi
Dew Point: 20°   Wind: 12mph
Humidity: 72%   Direction: 200°SSW
Pressure: 30.19"   Gusts: NA
Location:  42.29°N, 85.6°W
Report Text: KAZO 260353Z AUTO 20010KT 10SM OVC024 M02/M07 A3019 RMK AO2 SLP235 T10221067
Loading
Personal Weather Stations






























Interactive Weather Map New forecast layout! Learn more

10-Day Weather Forecast

Advertisements
Track Severe Weather on mobile